Armstrong Creek, Wisconsin
Current Conditions -  °F | °C
As of 4:54 PM on Thursday 23 Oct 2014 (Local Time) from KIMT Reporting Station
Light Rain Light Rain  
Wind Chill: 41°   Ceiling: 500
Heat Index: 45°   Visibility: 3mi
Dew Point: 44°   Wind: 7mph
Humidity: 97%   Direction: 180°S
Pressure: 30.01"   Gusts: NA
Location:  45.66°N, 88.45°W
Report Text: KIMT 232154Z AUTO 18006KT 3SM -RA BR BKN005 OVC031 07/07 A3001 RMK AO2 CIG 003V008 SLP174 P0002 T00720067
Loading
Personal Weather Stations






























Interactive Weather Map
Tropical Storm Tracking
New forecast layout! Learn more

10-Day Weather Forecast

Advertisements
Track Severe Weather on mobile